NJE2AW SKPA-SKIB
Flight info
| Callsign | NJE2AW |
|---|---|
| Flight time | N/A |
| Altitude | 26000 |
| Route | DOPLO1B DOPLO W82 BUV DCT ZIP DCT SOA W42 SILEG SILEG3G |
| Aircraft | C680/M-SBDGHM1RWXY/LB2 |
Departure
| Time | 2026-04-28 18:05 |
|---|---|
| Airport | Juan Jose Rondon Airport (SKPA) |
Arrival
| Time | N/A |
|---|---|
| Airport | Perales Airport (SKIB) |
| Time | Latitude | Longitude | Altitude | Speed | Heading |
|---|---|---|---|---|---|
| 2026-04-28 18:02 | 5.76070 | -73.10875 | 8172 ft | 11 kts | 130° |
| 2026-04-28 18:02 | 5.76060 | -73.10866 | 8172 ft | 5 kts | 153° |
| 2026-04-28 18:02 | 5.75990 | -73.10920 | 8172 ft | 20 kts | 219° |
| 2026-04-28 18:02 | 5.75895 | -73.10992 | 8174 ft | 15 kts | 217° |
| 2026-04-28 18:03 | 5.75877 | -73.10986 | 8174 ft | 3 kts | 33° |
| 2026-04-28 18:03 | 5.75903 | -73.10977 | 8173 ft | 0 kts | 36° |
| 2026-04-28 18:04 | 5.75957 | -73.10936 | 8173 ft | 45 kts | 37° |
| 2026-04-28 18:04 | 5.76484 | -73.10538 | 8173 ft | 141 kts | 37° |
| 2026-04-28 18:04 | 5.77402 | -73.09856 | 8800 ft | 178 kts | 36° |
| 2026-04-28 18:05 | 5.78397 | -73.09145 | 9827 ft | 178 kts | 34° |
| 2026-04-28 18:05 | 5.79107 | -73.08663 | 10417 ft | 182 kts | 33° |
| 2026-04-28 18:05 | 5.80775 | -73.08303 | 11662 ft | 198 kts | 345° |
| 2026-04-28 18:05 | 5.81902 | -73.09017 | 12540 ft | 201 kts | 306° |
| 2026-04-28 18:06 | 5.82236 | -73.10335 | 13447 ft | 197 kts | 263° |
| 2026-04-28 18:06 | 5.81977 | -73.11732 | 14432 ft | 212 kts | 257° |
| 2026-04-28 18:06 | 5.81856 | -73.13195 | 14917 ft | 210 kts | 272° |
| 2026-04-28 18:06 | 5.82114 | -73.14653 | 15109 ft | 212 kts | 289° |
| 2026-04-28 18:07 | 5.82740 | -73.15987 | 15273 ft | 211 kts | 296° |
| 2026-04-28 18:07 | 5.83411 | -73.17321 | 15263 ft | 215 kts | 295° |
| 2026-04-28 18:07 | 5.84056 | -73.18672 | 15186 ft | 215 kts | 294° |
| 2026-04-28 18:07 | 5.84679 | -73.20006 | 15198 ft | 207 kts | 295° |
| 2026-04-28 18:08 | 5.85339 | -73.21311 | 14962 ft | 214 kts | 296° |
| 2026-04-28 18:08 | 5.85977 | -73.22651 | 14805 ft | 211 kts | 293° |
| 2026-04-28 18:08 | 5.86522 | -73.24018 | 14596 ft | 211 kts | 289° |
| 2026-04-28 18:08 | 5.86973 | -73.25379 | 14574 ft | 203 kts | 287° |
| 2026-04-28 18:09 | 5.87401 | -73.26745 | 14386 ft | 205 kts | 287° |
| 2026-04-28 18:09 | 5.87781 | -73.28110 | 14276 ft | 203 kts | 274° |
| 2026-04-28 18:09 | 5.87666 | -73.29522 | 14218 ft | 199 kts | 257° |
| 2026-04-28 18:09 | 5.87376 | -73.30748 | 14137 ft | 204 kts | 256° |
| 2026-04-28 18:10 | 5.87041 | -73.32039 | 13833 ft | 214 kts | 254° |
| 2026-04-28 18:10 | 5.86662 | -73.33340 | 13794 ft | 206 kts | 252° |
| 2026-04-28 18:10 | 5.86216 | -73.34677 | 13706 ft | 202 kts | 250° |
| 2026-04-28 18:10 | 5.85943 | -73.35910 | 13760 ft | 194 kts | 272° |
| 2026-04-28 18:11 | 5.86092 | -73.37192 | 13862 ft | 198 kts | 271° |
| 2026-04-28 18:11 | 5.85910 | -73.38481 | 13974 ft | 204 kts | 255° |
| 2026-04-28 18:11 | 5.85586 | -73.39693 | 13998 ft | 209 kts | 256° |
| 2026-04-28 18:11 | 5.85290 | -73.41101 | 14008 ft | 207 kts | 258° |
| 2026-04-28 18:12 | 5.85009 | -73.42508 | 14004 ft | 204 kts | 257° |
| 2026-04-28 18:12 | 5.84705 | -73.43954 | 14404 ft | 222 kts | 257° |
| 2026-04-28 18:12 | 5.84360 | -73.45469 | 15730 ft | 217 kts | 256° |
| 2026-04-28 18:12 | 5.83862 | -73.46890 | 17029 ft | 221 kts | 239° |
| 2026-04-28 18:13 | 5.82827 | -73.48091 | 17975 ft | 235 kts | 218° |
| 2026-04-28 18:13 | 5.81428 | -73.48878 | 19289 ft | 231 kts | 202° |
| 2026-04-28 18:13 | 5.79892 | -73.49655 | 19816 ft | 260 kts | 218° |
| 2026-04-28 18:13 | 5.78756 | -73.51103 | 20646 ft | 272 kts | 244° |
| 2026-04-28 18:14 | 5.77969 | -73.52871 | 21462 ft | 288 kts | 245° |
| 2026-04-28 18:14 | 5.77107 | -73.54784 | 22015 ft | 312 kts | 245° |
| 2026-04-28 18:14 | 5.76115 | -73.56819 | 22547 ft | 336 kts | 240° |
| 2026-04-28 18:14 | 5.74775 | -73.58816 | 23240 ft | 355 kts | 232° |
| 2026-04-28 18:15 | 5.73210 | -73.60804 | 23929 ft | 370 kts | 231° |
| 2026-04-28 18:15 | 5.71602 | -73.62747 | 25478 ft | 359 kts | 229° |
| 2026-04-28 18:15 | 5.69893 | -73.64719 | 25546 ft | 392 kts | 229° |
| 2026-04-28 18:15 | 5.68087 | -73.66901 | 25413 ft | 423 kts | 231° |
| 2026-04-28 18:16 | 5.66231 | -73.69338 | 25298 ft | 454 kts | 233° |
| 2026-04-28 18:16 | 5.64289 | -73.71879 | 25187 ft | 461 kts | 232° |
| 2026-04-28 18:16 | 5.62285 | -73.74374 | 25253 ft | 463 kts | 231° |
| 2026-04-28 18:16 | 5.60262 | -73.76900 | 25180 ft | 460 kts | 231° |
| 2026-04-28 18:17 | 5.58295 | -73.79420 | 25181 ft | 460 kts | 232° |
| 2026-04-28 18:17 | 5.56257 | -73.81914 | 25177 ft | 463 kts | 227° |
| 2026-04-28 18:17 | 5.53854 | -73.84056 | 25150 ft | 462 kts | 218° |
| 2026-04-28 18:17 | 5.51160 | -73.85778 | 25301 ft | 459 kts | 208° |
| 2026-04-28 18:18 | 5.48196 | -73.87055 | 25195 ft | 465 kts | 198° |
| 2026-04-28 18:18 | 5.45098 | -73.87890 | 25192 ft | 459 kts | 193° |
| 2026-04-28 18:18 | 5.41986 | -73.88655 | 25492 ft | 456 kts | 194° |
| 2026-04-28 18:18 | 5.39977 | -73.89160 | 26498 ft | 447 kts | 194° |
| 2026-04-28 18:19 | 5.35844 | -73.90192 | 26993 ft | 471 kts | 194° |
| 2026-04-28 18:19 | 5.32645 | -73.90987 | 26996 ft | 474 kts | 194° |
| 2026-04-28 18:19 | 5.29447 | -73.91784 | 26995 ft | 473 kts | 194° |
| 2026-04-28 18:19 | 5.26251 | -73.92580 | 26998 ft | 475 kts | 194° |
| 2026-04-28 18:20 | 5.23038 | -73.93380 | 27000 ft | 477 kts | 194° |
| 2026-04-28 18:20 | 5.19818 | -73.94183 | 27000 ft | 476 kts | 194° |
| 2026-04-28 18:20 | 5.16610 | -73.94980 | 27000 ft | 474 kts | 194° |
| 2026-04-28 18:20 | 5.13417 | -73.95775 | 27000 ft | 473 kts | 194° |
| 2026-04-28 18:21 | 5.10215 | -73.96574 | 27001 ft | 475 kts | 194° |
| 2026-04-28 18:21 | 5.07004 | -73.97371 | 27001 ft | 477 kts | 194° |
| 2026-04-28 18:21 | 5.03798 | -73.98231 | 26996 ft | 476 kts | 198° |
| 2026-04-28 18:21 | 5.00809 | -73.99532 | 26991 ft | 475 kts | 207° |
| 2026-04-28 18:22 | 4.98015 | -74.01280 | 26993 ft | 473 kts | 215° |
| 2026-04-28 18:22 | 4.95316 | -74.03162 | 26993 ft | 473 kts | 214° |
| 2026-04-28 18:22 | 4.92593 | -74.05026 | 26994 ft | 475 kts | 214° |
| 2026-04-28 18:22 | 4.89865 | -74.06902 | 26994 ft | 476 kts | 214° |
| 2026-04-28 18:23 | 4.87140 | -74.08793 | 26997 ft | 476 kts | 214° |
| 2026-04-28 18:23 | 4.84420 | -74.10672 | 26179 ft | 474 kts | 214° |
| 2026-04-28 18:23 | 4.81707 | -74.12540 | 26296 ft | 473 kts | 213° |
| 2026-04-28 18:23 | 4.78984 | -74.14419 | 26412 ft | 477 kts | 213° |
| 2026-04-28 18:24 | 4.76245 | -74.16310 | 26499 ft | 478 kts | 213° |
| 2026-04-28 18:24 | 4.74402 | -74.17583 | 26163 ft | 471 kts | 213° |
| 2026-04-28 18:24 | 4.70931 | -74.19978 | 25385 ft | 444 kts | 213° |
| 2026-04-28 18:24 | 4.68429 | -74.21703 | 24817 ft | 431 kts | 213° |
| 2026-04-28 18:25 | 4.65970 | -74.23397 | 24252 ft | 429 kts | 214° |
| 2026-04-28 18:25 | 4.63628 | -74.25265 | 23612 ft | 432 kts | 223° |
| 2026-04-28 18:25 | 4.61647 | -74.27517 | 23002 ft | 430 kts | 232° |
| 2026-04-28 18:26 | 4.58975 | -74.32800 | 21807 ft | 424 kts | 252° |
| 2026-04-28 18:26 | 4.58251 | -74.35648 | 21221 ft | 420 kts | 256° |
| 2026-04-28 18:26 | 4.57556 | -74.38475 | 20637 ft | 416 kts | 255° |
| 2026-04-28 18:26 | 4.56856 | -74.41278 | 20052 ft | 413 kts | 255° |
| 2026-04-28 18:27 | 4.56166 | -74.44064 | 19466 ft | 410 kts | 256° |
| 2026-04-28 18:27 | 4.55488 | -74.46826 | 18888 ft | 407 kts | 256° |
| 2026-04-28 18:27 | 4.54810 | -74.49566 | 18341 ft | 403 kts | 256° |
| 2026-04-28 18:27 | 4.54139 | -74.52281 | 17769 ft | 399 kts | 256° |
| 2026-04-28 18:28 | 4.53474 | -74.54967 | 17238 ft | 395 kts | 256° |
| 2026-04-28 18:28 | 4.52816 | -74.57627 | 16702 ft | 392 kts | 256° |
| 2026-04-28 18:28 | 4.52163 | -74.60270 | 16172 ft | 390 kts | 256° |
| 2026-04-28 18:28 | 4.51518 | -74.62884 | 15650 ft | 379 kts | 256° |
| 2026-04-28 18:29 | 4.50898 | -74.65382 | 15138 ft | 360 kts | 256° |
| 2026-04-28 18:29 | 4.50308 | -74.67761 | 14643 ft | 344 kts | 256° |
| 2026-04-28 18:29 | 4.49742 | -74.70045 | 14155 ft | 332 kts | 255° |
| 2026-04-28 18:29 | 4.49193 | -74.72253 | 13658 ft | 322 kts | 256° |
| 2026-04-28 18:30 | 4.48664 | -74.74400 | 13123 ft | 314 kts | 256° |
| 2026-04-28 18:30 | 4.48494 | -74.75086 | 12953 ft | 311 kts | 256° |
| 2026-04-28 18:30 | 4.47802 | -74.77866 | 12261 ft | 305 kts | 256° |